createdAt,value
2023-03-29T00:00:31.390Z,56.30
2023-03-29T00:02:59.432Z,56.69
2023-03-29T00:05:26.841Z,56.70
2023-03-29T00:07:54.367Z,57.16
2023-03-29T00:10:24.081Z,56.73
2023-03-29T00:12:52.605Z,56.69
2023-03-29T00:15:20.736Z,56.49
2023-03-29T00:17:48.270Z,57.05
2023-03-29T00:20:16.538Z,57.16
2023-03-29T00:22:44.472Z,57.15
2023-03-29T00:25:13.099Z,57.49
2023-03-29T00:27:40.925Z,57.86
2023-03-29T00:30:10.131Z,57.96
2023-03-29T00:32:38.500Z,58.91
2023-03-29T00:35:06.695Z,58.19
2023-03-29T00:37:34.026Z,58.82
2023-03-29T00:40:01.493Z,58.95
2023-03-29T00:42:28.671Z,59.86
2023-03-29T00:45:06.145Z,59.67
2023-03-29T00:47:42.762Z,60.40
2023-03-29T00:50:22.445Z,60.58
2023-03-29T00:52:55.304Z,60.91
2023-03-29T00:55:24.593Z,61.68
2023-03-29T00:57:55.741Z,60.88
2023-03-29T01:00:27.062Z,61.42
2023-03-29T01:02:59.669Z,62.00
2023-03-29T01:05:34.027Z,61.86
2023-03-29T01:08:05.101Z,62.92
2023-03-29T01:10:57.266Z,63.05
2023-03-29T01:13:41.689Z,62.44
2023-03-29T01:16:10.869Z,63.22
2023-03-29T01:18:38.426Z,64.65
2023-03-29T01:21:20.375Z,64.51
2023-03-29T01:24:24.819Z,63.92
2023-03-29T01:27:03.669Z,65.56
2023-03-29T01:29:34.152Z,67.14
2023-03-29T01:32:17.685Z,67.26
2023-03-29T01:34:57.628Z,67.69
2023-03-29T01:37:30.135Z,67.67
2023-03-29T01:39:57.564Z,68.37
2023-03-29T01:43:16.382Z,68.49
2023-03-29T01:45:51.617Z,69.54
2023-03-29T01:48:25.016Z,68.96
2023-03-29T01:50:54.715Z,69.37
2023-03-29T01:53:27.187Z,69.49
2023-03-29T01:56:04.459Z,69.96
2023-03-29T01:58:38.949Z,70.16
2023-03-29T02:01:10.442Z,69.99
2023-03-29T02:03:42.282Z,70.41
2023-03-29T02:06:14.595Z,69.47
2023-03-29T02:08:43.067Z,69.18
2023-03-29T02:11:10.574Z,69.14
2023-03-29T02:13:38.013Z,69.76
2023-03-29T02:16:15.314Z,69.06
2023-03-29T02:18:44.664Z,69.04
2023-03-29T02:21:26.212Z,69.54
2023-03-29T02:23:55.259Z,69.61
2023-03-29T02:26:23.980Z,69.80
2023-03-29T02:28:52.762Z,69.70
2023-03-29T02:31:32.369Z,70.32
2023-03-29T02:34:07.906Z,69.57
2023-03-29T02:37:06.877Z,70.25
2023-03-29T02:39:34.888Z,70.72
2023-03-29T02:42:03.175Z,70.10
2023-03-29T02:44:32.263Z,70.02
2023-03-29T02:47:06.635Z,70.08
2023-03-29T02:49:34.273Z,70.47
2023-03-29T02:52:07.383Z,70.51
2023-03-29T02:54:37.998Z,70.14
2023-03-29T02:57:08.637Z,70.37
2023-03-29T02:59:36.371Z,70.14
2023-03-29T03:02:03.579Z,70.31
2023-03-29T03:04:31.656Z,69.98
2023-03-29T03:06:59.099Z,69.73
2023-03-29T03:09:26.355Z,69.86
2023-03-29T03:11:53.556Z,69.82
2023-03-29T03:14:22.882Z,69.09
2023-03-29T03:16:50.688Z,69.30
2023-03-29T03:19:17.838Z,68.85
2023-03-29T03:21:47.033Z,68.71
2023-03-29T03:24:15.593Z,68.55
2023-03-29T03:26:42.820Z,68.11
2023-03-29T03:29:11.302Z,68.36
2023-03-29T03:31:41.322Z,68.89
2023-03-29T03:34:11.488Z,69.95
2023-03-29T03:36:39.721Z,69.89
2023-03-29T03:39:07.369Z,70.08
2023-03-29T03:41:34.787Z,70.73
2023-03-29T03:44:02.270Z,71.80
2023-03-29T03:46:30.029Z,71.18
2023-03-29T03:48:58.641Z,70.34
2023-03-29T03:51:27.135Z,70.11
2023-03-29T03:53:54.545Z,69.13
2023-03-29T03:56:23.646Z,68.71
2023-03-29T03:58:52.616Z,67.84
2023-03-29T04:01:19.934Z,67.70
2023-03-29T04:03:48.722Z,67.82
2023-03-29T04:06:16.306Z,68.22
2023-03-29T04:08:45.636Z,67.89
2023-03-29T04:11:13.754Z,66.75
2023-03-29T04:13:41.597Z,66.20
2023-03-29T04:16:12.138Z,65.22
2023-03-29T04:18:39.827Z,64.76
2023-03-29T04:21:07.214Z,64.23
2023-03-29T04:23:36.105Z,64.94
2023-03-29T04:26:04.147Z,64.72
2023-03-29T04:28:33.149Z,64.91
2023-03-29T04:31:00.799Z,65.43
2023-03-29T04:33:29.429Z,65.51
2023-03-29T04:35:59.128Z,66.19
2023-03-29T04:38:27.427Z,66.26
2023-03-29T04:40:55.235Z,67.24
2023-03-29T04:43:23.733Z,67.41
2023-03-29T04:45:52.681Z,67.40
2023-03-29T04:48:22.365Z,67.62
2023-03-29T04:50:49.669Z,68.09
2023-03-29T04:53:17.333Z,68.13
2023-03-29T04:55:46.922Z,67.75
2023-03-29T04:58:14.424Z,68.15
2023-03-29T05:00:42.938Z,68.31
2023-03-29T05:03:14.476Z,68.50
2023-03-29T05:05:42.355Z,68.30
2023-03-29T05:08:10.650Z,67.71
2023-03-29T05:10:43.300Z,67.80
2023-03-29T05:13:11.237Z,67.72
2023-03-29T05:15:41.292Z,68.10
2023-03-29T05:18:09.682Z,66.66
2023-03-29T05:20:37.782Z,66.88
2023-03-29T05:23:05.274Z,67.44
2023-03-29T05:25:36.445Z,67.59
2023-03-29T05:28:03.872Z,67.29
2023-03-29T05:30:31.386Z,67.76
2023-03-29T05:33:02.103Z,68.10
2023-03-29T05:35:29.704Z,67.69
2023-03-29T05:37:58.238Z,67.89
2023-03-29T05:40:26.314Z,67.60
2023-03-29T05:42:55.227Z,67.90
2023-03-29T05:45:23.024Z,67.48
2023-03-29T05:47:50.749Z,66.87
2023-03-29T05:50:18.135Z,67.05
2023-03-29T05:52:45.995Z,67.02
2023-03-29T05:55:13.924Z,67.17
2023-03-29T05:57:41.481Z,67.50
2023-03-29T06:00:21.986Z,67.27
2023-03-29T06:02:52.666Z,67.49
2023-03-29T06:05:21.328Z,67.59
2023-03-29T06:07:49.173Z,67.53
2023-03-29T06:10:18.045Z,66.94
2023-03-29T06:12:47.023Z,66.88
2023-03-29T06:15:16.162Z,67.18
2023-03-29T06:17:47.708Z,67.48
2023-03-29T06:20:15.127Z,66.76
2023-03-29T06:22:42.765Z,66.64
2023-03-29T06:25:12.366Z,66.06
2023-03-29T06:27:39.892Z,66.53
2023-03-29T06:30:08.073Z,62.98
2023-03-29T06:32:36.211Z,62.22
2023-03-29T06:35:04.996Z,61.88
2023-03-29T06:37:32.590Z,61.08
2023-03-29T06:40:01.079Z,60.03
2023-03-29T06:42:29.726Z,62.03
2023-03-29T06:44:58.106Z,61.03
2023-03-29T06:47:30.885Z,57.58
2023-03-29T06:49:58.213Z,58.28
2023-03-29T06:52:27.064Z,59.09
2023-03-29T06:54:54.534Z,57.94
2023-03-29T06:57:23.978Z,56.75
2023-03-29T06:59:51.541Z,56.87
2023-03-29T07:02:18.808Z,57.28
2023-03-29T07:04:46.266Z,57.73
2023-03-29T07:07:20.522Z,59.56
2023-03-29T07:09:53.887Z,58.00
2023-03-29T07:12:23.460Z,58.69
2023-03-29T07:14:50.662Z,58.23
2023-03-29T07:17:18.560Z,57.53
2023-03-29T07:19:46.844Z,57.97
2023-03-29T07:22:15.313Z,57.82
2023-03-29T07:24:43.895Z,58.18
2023-03-29T07:27:11.361Z,57.59
2023-03-29T07:29:38.662Z,57.68
2023-03-29T07:32:06.527Z,56.90
2023-03-29T07:34:35.621Z,58.44
2023-03-29T07:37:03.039Z,58.81
2023-03-29T07:39:31.045Z,57.44
2023-03-29T07:42:01.570Z,55.79
2023-03-29T07:44:29.932Z,56.59
2023-03-29T07:46:59.970Z,55.26
2023-03-29T07:49:27.831Z,55.14
2023-03-29T07:51:55.375Z,54.56
2023-03-29T07:54:23.677Z,53.30
2023-03-29T07:56:52.089Z,53.95
2023-03-29T07:59:19.526Z,53.69
2023-03-29T08:01:47.987Z,52.45
2023-03-29T08:04:15.933Z,54.95
2023-03-29T08:06:49.128Z,54.46
2023-03-29T08:09:17.644Z,53.03
2023-03-29T08:11:44.969Z,51.39
2023-03-29T08:14:12.639Z,50.57
2023-03-29T08:16:41.945Z,55.44
2023-03-29T08:19:10.308Z,55.47
2023-03-29T08:21:39.440Z,46.84
2023-03-29T08:24:08.041Z,43.61
2023-03-29T08:26:36.385Z,44.00
2023-03-29T08:29:04.088Z,43.31
2023-03-29T08:31:32.208Z,45.97
2023-03-29T08:34:02.106Z,47.34
2023-03-29T08:36:30.471Z,44.66
2023-03-29T08:38:58.763Z,48.70
2023-03-29T08:41:41.007Z,44.00
2023-03-29T08:44:20.613Z,40.76
2023-03-29T08:46:51.986Z,43.92
2023-03-29T08:49:20.860Z,40.15
2023-03-29T08:51:53.109Z,40.63
2023-03-29T08:54:25.057Z,41.02
2023-03-29T08:57:03.073Z,39.46
2023-03-29T08:59:32.033Z,39.80
2023-03-29T09:02:00.867Z,38.83
2023-03-29T09:04:31.689Z,41.08
2023-03-29T09:06:59.518Z,42.26
2023-03-29T09:09:33.565Z,46.21
2023-03-29T09:12:26.362Z,41.86
2023-03-29T09:15:24.988Z,40.70
2023-03-29T09:17:53.107Z,37.61
2023-03-29T09:20:51.494Z,38.90
2023-03-29T09:24:07.713Z,37.56
2023-03-29T09:26:47.602Z,45.48
2023-03-29T09:29:37.398Z,38.35
2023-03-29T09:32:13.769Z,48.59
2023-03-29T09:34:46.925Z,46.91
2023-03-29T09:37:24.904Z,38.49
2023-03-29T09:39:53.222Z,37.99
2023-03-29T09:42:21.935Z,39.02
2023-03-29T09:44:53.030Z,39.35
2023-03-29T09:47:24.985Z,43.21
2023-03-29T09:49:58.960Z,38.82
2023-03-29T09:52:26.425Z,41.69
2023-03-29T09:54:54.194Z,42.76
2023-03-29T09:57:29.609Z,43.64
2023-03-29T09:59:58.983Z,46.31
2023-03-29T10:02:30.704Z,42.73
2023-03-29T10:05:04.034Z,37.33
2023-03-29T10:07:44.571Z,39.29
2023-03-29T10:10:22.968Z,41.66
2023-03-29T10:12:52.547Z,39.63
2023-03-29T10:15:29.238Z,40.78
2023-03-29T10:18:07.466Z,41.32
2023-03-29T10:20:38.462Z,41.63
2023-03-29T10:23:08.098Z,41.62
2023-03-29T10:25:42.077Z,46.00
2023-03-29T10:28:21.089Z,45.19
2023-03-29T10:30:54.227Z,46.50
2023-03-29T10:33:24.261Z,44.54
2023-03-29T10:35:51.864Z,38.29
2023-03-29T10:38:20.959Z,38.18
2023-03-29T10:40:50.102Z,37.08
2023-03-29T10:43:17.595Z,39.37
2023-03-29T10:45:48.565Z,40.23
2023-03-29T10:48:17.642Z,42.23
2023-03-29T10:50:54.718Z,42.09
2023-03-29T10:53:28.460Z,39.70
2023-03-29T10:56:14.218Z,44.42
2023-03-29T10:58:56.481Z,41.91
2023-03-29T11:02:01.825Z,43.23
2023-03-29T11:04:44.968Z,41.80
2023-03-29T11:07:33.915Z,41.58
2023-03-29T11:10:25.970Z,44.26
2023-03-29T11:13:03.359Z,42.59
2023-03-29T11:15:42.675Z,38.31
2023-03-29T11:18:20.089Z,38.86
2023-03-29T11:21:12.539Z,50.73
2023-03-29T11:23:50.784Z,44.83
2023-03-29T11:26:27.197Z,45.07
2023-03-29T11:29:01.784Z,43.36
2023-03-29T11:31:28.801Z,37.57
2023-03-29T11:34:03.643Z,37.31
2023-03-29T11:36:58.524Z,42.30
2023-03-29T11:39:35.023Z,43.16
2023-03-29T11:42:14.292Z,41.00
2023-03-29T11:44:42.224Z,42.77
2023-03-29T11:47:20.872Z,44.62
2023-03-29T11:49:54.565Z,47.60
2023-03-29T11:52:25.889Z,46.18
2023-03-29T11:55:14.708Z,44.23
2023-03-29T11:58:01.424Z,39.33
2023-03-29T12:00:42.712Z,47.17
2023-03-29T12:03:40.661Z,43.87
2023-03-29T12:06:21.461Z,39.05
2023-03-29T12:09:01.267Z,43.40
2023-03-29T12:11:31.157Z,43.21
2023-03-29T12:14:27.781Z,38.71
2023-03-29T12:17:01.591Z,46.35
2023-03-29T12:19:38.591Z,42.69
2023-03-29T12:22:09.178Z,44.71
2023-03-29T12:24:40.406Z,39.60
2023-03-29T12:27:30.700Z,39.84
2023-03-29T12:30:04.152Z,37.95
2023-03-29T12:32:53.081Z,40.47
2023-03-29T12:35:24.460Z,38.52
2023-03-29T12:38:05.224Z,44.85
2023-03-29T12:40:46.047Z,42.59
2023-03-29T12:43:25.302Z,42.19
2023-03-29T12:46:07.759Z,48.63
2023-03-29T12:48:37.549Z,42.97
2023-03-29T12:51:08.531Z,39.61
2023-03-29T12:53:41.014Z,45.00
2023-03-29T12:56:12.579Z,44.77
2023-03-29T12:58:39.709Z,42.87
2023-03-29T13:01:23.396Z,40.91
2023-03-29T13:03:52.946Z,48.77
2023-03-29T13:06:46.625Z,39.23
2023-03-29T13:09:23.312Z,39.38
2023-03-29T13:11:55.190Z,42.62
2023-03-29T13:14:27.455Z,41.94
2023-03-29T13:17:11.886Z,42.82
2023-03-29T13:20:05.681Z,45.54
2023-03-29T13:23:16.185Z,41.85
2023-03-29T13:26:17.417Z,46.79
2023-03-29T13:29:03.569Z,45.69
2023-03-29T13:31:50.392Z,46.85
2023-03-29T13:34:24.830Z,39.57
2023-03-29T13:36:58.334Z,38.87
2023-03-29T13:39:30.945Z,37.81
2023-03-29T13:42:18.060Z,42.84
2023-03-29T13:44:49.026Z,45.12
2023-03-29T13:47:19.492Z,38.96
2023-03-29T13:49:53.278Z,40.06
2023-03-29T13:52:32.920Z,38.29
2023-03-29T13:55:19.880Z,47.20
2023-03-29T13:57:56.804Z,40.82
2023-03-29T14:00:28.651Z,38.87
2023-03-29T14:02:59.276Z,41.47
2023-03-29T14:05:32.508Z,38.62
2023-03-29T14:08:27.939Z,38.33
2023-03-29T14:10:55.876Z,37.75
2023-03-29T14:13:25.176Z,37.73
2023-03-29T14:15:54.792Z,43.99
2023-03-29T14:18:24.249Z,43.92
2023-03-29T14:20:54.886Z,46.13
2023-03-29T14:23:27.394Z,39.91
2023-03-29T14:25:54.824Z,44.22
2023-03-29T14:28:27.048Z,40.87
2023-03-29T14:30:56.009Z,38.29
2023-03-29T14:33:27.321Z,40.89
2023-03-29T14:35:56.110Z,42.23
2023-03-29T14:38:24.405Z,40.93
2023-03-29T14:40:51.786Z,43.51
2023-03-29T14:43:24.247Z,37.70
2023-03-29T14:45:51.590Z,37.63
2023-03-29T14:48:19.135Z,43.85
2023-03-29T14:50:47.197Z,40.50
2023-03-29T14:53:20.442Z,40.02
2023-03-29T14:55:51.663Z,42.39
2023-03-29T14:58:32.346Z,38.06
2023-03-29T15:01:21.483Z,38.53
2023-03-29T15:04:09.168Z,38.70
2023-03-29T15:06:42.378Z,43.13
2023-03-29T15:09:19.171Z,38.85
2023-03-29T15:11:52.269Z,41.10
2023-03-29T15:14:20.295Z,38.73
2023-03-29T15:16:48.443Z,37.94
2023-03-29T15:19:18.590Z,41.59
2023-03-29T15:21:51.086Z,41.37
2023-03-29T15:24:27.751Z,40.38
2023-03-29T15:27:15.654Z,40.26
2023-03-29T15:29:45.290Z,41.55
2023-03-29T15:32:31.658Z,44.28
2023-03-29T15:35:04.931Z,43.98
2023-03-29T15:37:32.282Z,43.76
2023-03-29T15:39:59.781Z,45.87
2023-03-29T15:42:26.974Z,43.41
2023-03-29T15:44:56.247Z,39.62
2023-03-29T15:47:24.051Z,39.11
2023-03-29T15:49:51.665Z,44.94
2023-03-29T15:52:18.982Z,42.36
2023-03-29T15:54:46.487Z,38.69
2023-03-29T15:57:14.968Z,40.08
2023-03-29T15:59:42.982Z,40.47
2023-03-29T16:02:15.878Z,40.33
2023-03-29T16:04:43.574Z,40.68
2023-03-29T16:07:14.551Z,40.67
2023-03-29T16:09:42.388Z,41.79
2023-03-29T16:12:10.421Z,43.89
2023-03-29T16:14:37.748Z,43.22
2023-03-29T16:17:05.974Z,42.93
2023-03-29T16:19:33.877Z,42.78
2023-03-29T16:22:02.462Z,43.75
2023-03-29T16:24:32.059Z,44.13
2023-03-29T16:27:00.084Z,47.80
2023-03-29T16:29:27.568Z,44.19
2023-03-29T16:31:54.943Z,46.22
2023-03-29T16:34:23.006Z,44.36
2023-03-29T16:36:50.699Z,46.86
2023-03-29T16:39:18.455Z,46.67
2023-03-29T16:41:49.040Z,46.30
2023-03-29T16:44:20.189Z,47.42
2023-03-29T16:46:49.245Z,48.58
2023-03-29T16:49:19.155Z,52.02
2023-03-29T16:51:46.925Z,50.44
2023-03-29T16:54:15.165Z,50.53
2023-03-29T16:56:42.382Z,51.20
2023-03-29T16:59:09.715Z,51.79
2023-03-29T17:01:37.451Z,52.13
2023-03-29T17:04:04.853Z,51.90
2023-03-29T17:06:32.808Z,53.40
2023-03-29T17:09:02.558Z,53.46
2023-03-29T17:11:29.697Z,54.18
2023-03-29T17:13:56.898Z,54.17
2023-03-29T17:16:24.397Z,54.65
2023-03-29T17:18:51.673Z,54.78
2023-03-29T17:21:19.089Z,54.70
2023-03-29T17:23:46.493Z,54.23
2023-03-29T17:26:14.160Z,54.45
2023-03-29T17:28:43.490Z,53.85
2023-03-29T17:31:11.191Z,54.48
2023-03-29T17:33:40.409Z,55.34
2023-03-29T17:36:08.222Z,55.36
2023-03-29T17:38:38.030Z,55.43
2023-03-29T17:41:07.014Z,55.39
2023-03-29T17:43:34.260Z,56.21
2023-03-29T17:48:28.925Z,56.64
2023-03-29T17:50:56.975Z,56.60
2023-03-29T17:53:24.666Z,56.23
2023-03-29T17:55:52.246Z,56.51
2023-03-29T17:58:22.237Z,56.58
2023-03-29T18:00:49.692Z,57.77
2023-03-29T18:03:17.227Z,58.29
2023-03-29T18:05:44.345Z,57.19
2023-03-29T18:08:13.558Z,57.96
2023-03-29T18:10:41.184Z,58.34
2023-03-29T18:13:11.299Z,58.83
2023-03-29T18:15:38.553Z,57.59
2023-03-29T18:18:06.364Z,57.87
2023-03-29T18:20:33.639Z,58.17
2023-03-29T18:23:01.097Z,59.26
2023-03-29T18:25:31.627Z,59.44
2023-03-29T18:27:58.824Z,58.95
2023-03-29T18:30:26.241Z,59.54
2023-03-29T18:32:54.179Z,59.26
2023-03-29T18:35:21.542Z,59.88
2023-03-29T18:37:48.727Z,59.39
2023-03-29T18:40:20.155Z,59.74
2023-03-29T18:42:47.795Z,60.08
2023-03-29T18:45:14.993Z,59.63
2023-03-29T18:47:42.655Z,58.88
2023-03-29T18:50:10.640Z,59.97
2023-03-29T18:52:40.177Z,59.98
2023-03-29T18:55:10.609Z,59.32
2023-03-29T18:57:37.779Z,59.85
2023-03-29T19:00:10.650Z,60.43
2023-03-29T19:02:39.625Z,60.41
2023-03-29T19:05:08.638Z,61.18
2023-03-29T19:07:35.982Z,61.52
2023-03-29T19:10:04.662Z,61.59
2023-03-29T19:12:33.551Z,62.06
2023-03-29T19:15:00.751Z,63.47
2023-03-29T19:17:28.487Z,62.46
2023-03-29T19:19:56.796Z,62.34
2023-03-29T19:22:24.163Z,62.47
2023-03-29T19:24:51.634Z,63.79
2023-03-29T19:27:18.874Z,65.38
2023-03-29T19:29:46.225Z,66.06
2023-03-29T19:32:13.683Z,66.66
2023-03-29T19:34:40.940Z,67.66
2023-03-29T19:37:08.135Z,67.36
2023-03-29T19:39:35.896Z,68.01
2023-03-29T19:42:03.053Z,68.25
2023-03-29T19:44:30.415Z,68.98
2023-03-29T19:46:57.880Z,69.49
2023-03-29T19:49:25.084Z,70.05
2023-03-29T19:51:54.876Z,69.90
2023-03-29T19:54:22.250Z,69.37
2023-03-29T19:56:51.320Z,70.03
2023-03-29T19:59:20.203Z,70.04
2023-03-29T20:01:51.060Z,70.98
2023-03-29T20:04:20.880Z,70.78
2023-03-29T20:06:48.524Z,71.60
2023-03-29T20:09:18.674Z,71.45
2023-03-29T20:11:48.758Z,71.77
2023-03-29T20:14:16.092Z,72.09
2023-03-29T20:16:44.790Z,72.55
2023-03-29T20:19:17.469Z,72.57
2023-03-29T20:21:44.820Z,72.24
2023-03-29T20:24:12.222Z,72.71
2023-03-29T20:26:39.489Z,72.59
2023-03-29T20:29:07.248Z,72.02
2023-03-29T20:31:34.809Z,72.47
2023-03-29T20:34:01.954Z,72.71
2023-03-29T20:36:30.820Z,72.49
2023-03-29T20:38:59.341Z,71.66
2023-03-29T20:41:26.674Z,71.87
2023-03-29T20:44:00.402Z,71.71
2023-03-29T20:46:34.932Z,73.29
2023-03-29T20:49:07.314Z,72.13
2023-03-29T20:51:35.548Z,72.00
2023-03-29T20:54:05.791Z,70.86
2023-03-29T20:56:35.554Z,71.47
2023-03-29T20:59:04.028Z,71.44
2023-03-29T21:01:31.578Z,71.44
2023-03-29T21:03:58.872Z,71.09
2023-03-29T21:06:26.439Z,71.04
2023-03-29T21:08:53.643Z,70.72
2023-03-29T21:11:21.021Z,70.11
2023-03-29T21:13:48.580Z,69.67
2023-03-29T21:16:15.920Z,70.03
2023-03-29T21:18:43.529Z,71.68
2023-03-29T21:21:12.061Z,72.36
2023-03-29T21:23:39.796Z,72.62
2023-03-29T21:26:07.957Z,72.96
2023-03-29T21:28:36.208Z,72.56
2023-03-29T21:31:07.414Z,73.53
2023-03-29T21:33:35.527Z,73.88
2023-03-29T21:36:03.190Z,74.17
2023-03-29T21:38:30.657Z,74.35
2023-03-29T21:40:58.216Z,75.50
2023-03-29T21:43:25.840Z,75.84
2023-03-29T21:45:53.065Z,75.53
2023-03-29T21:48:20.316Z,75.90
2023-03-29T21:50:51.084Z,76.38
2023-03-29T21:53:18.466Z,76.38
2023-03-29T21:55:48.476Z,76.15
2023-03-29T21:58:16.282Z,75.13
2023-03-29T22:00:43.711Z,74.90
2023-03-29T22:03:11.482Z,75.23
2023-03-29T22:05:38.830Z,75.79
2023-03-29T22:08:06.667Z,76.22
2023-03-29T22:10:37.747Z,77.17
2023-03-29T22:13:04.938Z,77.37
2023-03-29T22:15:35.525Z,77.25
2023-03-29T22:18:03.950Z,77.39
2023-03-29T22:20:35.518Z,78.04
2023-03-29T22:23:03.389Z,77.93
2023-03-29T22:25:31.079Z,77.90
2023-03-29T22:27:58.593Z,78.48
2023-03-29T22:30:26.164Z,78.46
2023-03-29T22:32:53.373Z,78.12
2023-03-29T22:35:20.692Z,77.80
2023-03-29T22:37:48.128Z,78.37
2023-03-29T22:40:15.513Z,78.67
2023-03-29T22:42:42.651Z,78.62
2023-03-29T22:45:10.934Z,78.79
2023-03-29T22:47:38.258Z,78.40
2023-03-29T22:50:06.223Z,78.48
2023-03-29T22:52:33.727Z,78.82
2023-03-29T22:55:00.906Z,78.94
2023-03-29T22:57:28.150Z,78.49
2023-03-29T22:59:55.727Z,79.49
2023-03-29T23:02:22.956Z,79.49
2023-03-29T23:04:50.194Z,79.67
2023-03-29T23:07:17.773Z,80.06
2023-03-29T23:09:45.102Z,79.92
2023-03-29T23:12:12.363Z,79.22
2023-03-29T23:14:42.699Z,78.94
2023-03-29T23:17:10.393Z,79.57
2023-03-29T23:19:38.132Z,79.39
2023-03-29T23:22:05.717Z,79.74
2023-03-29T23:24:33.382Z,79.05
2023-03-29T23:27:01.228Z,80.11
2023-03-29T23:29:28.805Z,79.61
2023-03-29T23:31:56.896Z,79.79
2023-03-29T23:34:24.105Z,79.66
2023-03-29T23:36:51.574Z,79.75
2023-03-29T23:39:18.770Z,79.61
2023-03-29T23:41:45.855Z,80.04
2023-03-29T23:44:13.494Z,79.36
2023-03-29T23:46:41.903Z,79.72
2023-03-29T23:49:09.989Z,78.73
2023-03-29T23:51:39.078Z,79.44
2023-03-29T23:54:06.620Z,78.86
2023-03-29T23:56:34.016Z,79.36
2023-03-29T23:59:01.575Z,79.54
